createdAt,value
2023-05-21T00:02:18.735Z,12.71
2023-05-21T00:04:45.416Z,12.66
2023-05-21T00:07:12.744Z,12.66
2023-05-21T00:09:39.541Z,12.68
2023-05-21T00:12:07.540Z,12.71
2023-05-21T00:14:34.519Z,12.62
2023-05-21T00:17:00.966Z,12.62
2023-05-21T00:19:27.539Z,12.63
2023-05-21T00:21:54.757Z,12.55
2023-05-21T00:24:21.254Z,12.57
2023-05-21T00:26:47.638Z,12.53
2023-05-21T00:29:14.042Z,12.56
2023-05-21T00:31:40.548Z,12.59
2023-05-21T00:34:06.987Z,12.62
2023-05-21T00:36:34.681Z,12.56
2023-05-21T00:39:02.350Z,12.59
2023-05-21T00:41:30.137Z,12.58
2023-05-21T00:43:57.154Z,12.48
2023-05-21T00:46:23.979Z,12.52
2023-05-21T00:48:51.029Z,12.46
2023-05-21T00:51:18.594Z,12.44
2023-05-21T00:53:46.593Z,12.47
2023-05-21T00:56:13.463Z,12.50
2023-05-21T00:58:41.039Z,12.39
2023-05-21T01:01:13.597Z,12.41
2023-05-21T01:03:40.925Z,12.46
2023-05-21T01:06:08.715Z,12.41
2023-05-21T01:08:37.522Z,12.44
2023-05-21T01:11:05.649Z,12.46
2023-05-21T01:13:34.421Z,12.43
2023-05-21T01:16:01.613Z,12.34
2023-05-21T01:18:28.700Z,12.34
2023-05-21T01:20:55.159Z,12.36
2023-05-21T01:23:21.661Z,12.31
2023-05-21T01:25:48.142Z,12.32
2023-05-21T01:28:14.656Z,12.26
2023-05-21T01:30:42.839Z,12.28
2023-05-21T01:33:29.624Z,12.29
2023-05-21T01:36:04.340Z,12.18
2023-05-21T01:38:48.919Z,12.21
2023-05-21T01:41:18.652Z,12.18
2023-05-21T01:43:47.312Z,12.19
2023-05-21T01:46:19.935Z,12.19
2023-05-21T01:48:47.448Z,12.18
2023-05-21T01:51:14.716Z,12.11
2023-05-21T01:53:41.480Z,12.15
2023-05-21T01:56:08.324Z,12.08
2023-05-21T01:58:34.792Z,12.12
2023-05-21T02:01:02.780Z,12.13
2023-05-21T02:03:31.092Z,12.11
2023-05-21T02:05:57.779Z,12.07
2023-05-21T02:08:25.472Z,12.04
2023-05-21T02:10:51.964Z,12.04
2023-05-21T02:13:21.526Z,12.06
2023-05-21T02:15:49.419Z,12.11
2023-05-21T02:18:16.795Z,12.05
2023-05-21T02:20:43.739Z,12.06
2023-05-21T02:23:10.310Z,12.08
2023-05-21T02:25:37.080Z,12.03
2023-05-21T02:28:03.985Z,12.05
2023-05-21T02:30:30.527Z,12.02
2023-05-21T02:32:58.707Z,12.04
2023-05-21T02:35:25.212Z,11.97
2023-05-21T02:37:51.628Z,12.10
2023-05-21T02:40:18.029Z,12.05
2023-05-21T02:42:44.458Z,12.01
2023-05-21T02:45:12.171Z,12.01
2023-05-21T02:47:39.121Z,11.97
2023-05-21T02:50:07.398Z,11.97
2023-05-21T02:52:33.854Z,11.99
2023-05-21T02:55:00.326Z,11.97
2023-05-21T02:57:26.703Z,11.94
2023-05-21T02:59:53.120Z,11.91
2023-05-21T03:02:19.573Z,11.93
2023-05-21T03:04:46.511Z,11.89
2023-05-21T03:07:14.474Z,11.93
2023-05-21T03:09:42.228Z,11.87
2023-05-21T03:12:09.214Z,11.83
2023-05-21T03:14:35.950Z,11.86
2023-05-21T03:17:06.513Z,11.95
2023-05-21T03:19:36.827Z,11.86
2023-05-21T03:22:04.098Z,11.85
2023-05-21T03:24:30.809Z,11.91
2023-05-21T03:26:57.479Z,11.82
2023-05-21T03:29:23.912Z,11.90
2023-05-21T03:31:52.478Z,11.91
2023-05-21T03:34:20.105Z,11.88
2023-05-21T03:36:47.776Z,11.90
2023-05-21T03:39:14.417Z,11.90
2023-05-21T03:41:41.193Z,11.96
2023-05-21T03:44:07.818Z,11.90
2023-05-21T03:46:34.300Z,11.86
2023-05-21T03:49:00.812Z,11.83
2023-05-21T03:51:27.540Z,11.90
2023-05-21T03:53:53.986Z,11.82
2023-05-21T03:56:21.528Z,11.82
2023-05-21T03:58:48.094Z,11.85
2023-05-21T04:01:14.591Z,11.85
2023-05-21T04:03:41.310Z,11.80
2023-05-21T04:06:10.171Z,11.81
2023-05-21T04:08:37.979Z,11.74
2023-05-21T04:11:04.527Z,11.74
2023-05-21T04:13:30.934Z,11.78
2023-05-21T04:15:57.389Z,11.88
2023-05-21T04:18:25.872Z,11.85
2023-05-21T04:20:52.587Z,11.73
2023-05-21T04:23:19.141Z,11.78
2023-05-21T04:25:45.585Z,11.79
2023-05-21T04:28:11.988Z,11.73
2023-05-21T04:30:38.804Z,11.77
2023-05-21T04:33:05.270Z,11.78
2023-05-21T04:35:31.903Z,11.83
2023-05-21T04:37:58.335Z,11.81
2023-05-21T04:40:24.809Z,11.78
2023-05-21T04:42:51.500Z,11.86
2023-05-21T04:45:18.057Z,11.85
2023-05-21T04:47:44.580Z,11.92
2023-05-21T04:50:11.023Z,11.90
2023-05-21T04:52:40.185Z,12.02
2023-05-21T04:55:07.871Z,12.00
2023-05-21T04:57:35.132Z,12.07
2023-05-21T05:00:02.015Z,12.10
2023-05-21T05:02:28.465Z,12.04
2023-05-21T05:04:54.913Z,12.00
2023-05-21T05:07:21.536Z,12.05
2023-05-21T05:09:47.921Z,12.10
2023-05-21T05:12:14.448Z,12.17
2023-05-21T05:14:40.924Z,12.13
2023-05-21T05:17:09.885Z,12.18
2023-05-21T05:19:36.578Z,12.23
2023-05-21T05:22:03.375Z,12.29
2023-05-21T05:24:29.800Z,12.29
2023-05-21T05:26:56.213Z,12.32
2023-05-21T05:29:22.632Z,12.37
2023-05-21T05:31:49.076Z,12.48
2023-05-21T05:34:15.471Z,12.45
2023-05-21T05:36:41.867Z,12.47
2023-05-21T05:39:08.807Z,12.51
2023-05-21T05:41:35.202Z,12.50
2023-05-21T05:44:01.599Z,12.47
2023-05-21T05:46:29.115Z,12.50
2023-05-21T05:48:55.578Z,12.57
2023-05-21T05:51:21.962Z,12.61
2023-05-21T05:53:48.412Z,12.59
2023-05-21T05:56:17.038Z,12.62
2023-05-21T05:58:43.437Z,12.77
2023-05-21T06:01:09.906Z,12.72
2023-05-21T06:03:36.583Z,12.82
2023-05-21T06:06:03.250Z,12.81
2023-05-21T06:08:29.675Z,12.82
2023-05-21T06:10:56.238Z,12.91
2023-05-21T06:13:22.652Z,12.99
2023-05-21T06:15:49.089Z,13.08
2023-05-21T06:18:15.841Z,13.07
2023-05-21T06:20:42.251Z,13.23
2023-05-21T06:23:08.858Z,13.33
2023-05-21T06:25:35.555Z,13.45
2023-05-21T06:28:02.322Z,13.58
2023-05-21T06:30:28.792Z,13.58
2023-05-21T06:32:55.342Z,13.71
2023-05-21T06:35:21.904Z,13.80
2023-05-21T06:37:48.774Z,13.88
2023-05-21T06:40:15.487Z,13.94
2023-05-21T06:42:41.892Z,14.00
2023-05-21T06:45:08.705Z,14.04
2023-05-21T06:47:35.176Z,14.01
2023-05-21T06:50:01.649Z,13.97
2023-05-21T06:52:28.080Z,14.04
2023-05-21T06:54:54.485Z,14.16
2023-05-21T06:57:20.953Z,14.20
2023-05-21T06:59:47.363Z,14.50
2023-05-21T07:02:13.798Z,14.77
2023-05-21T07:04:40.871Z,14.96
2023-05-21T07:07:07.277Z,15.13
2023-05-21T07:09:33.686Z,15.40
2023-05-21T07:12:00.207Z,15.47
2023-05-21T07:14:26.738Z,15.82
2023-05-21T07:16:53.592Z,16.11
2023-05-21T07:19:20.137Z,16.26
2023-05-21T07:21:46.849Z,16.17
2023-05-21T07:24:13.302Z,16.30
2023-05-21T07:26:40.362Z,16.39
2023-05-21T07:29:06.818Z,16.33
2023-05-21T07:31:33.356Z,16.47
2023-05-21T07:33:59.875Z,16.47
2023-05-21T07:36:26.510Z,16.32
2023-05-21T07:38:53.014Z,16.50
2023-05-21T07:41:19.456Z,16.49
2023-05-21T07:43:45.919Z,16.41
2023-05-21T07:46:12.366Z,16.45
2023-05-21T07:48:38.848Z,16.38
2023-05-21T07:51:05.539Z,16.46
2023-05-21T07:53:33.243Z,16.47
2023-05-21T07:56:00.620Z,16.52
2023-05-21T07:58:27.132Z,16.36
2023-05-21T08:00:53.956Z,16.35
2023-05-21T08:03:20.655Z,16.45
2023-05-21T08:05:50.933Z,16.47
2023-05-21T08:08:21.968Z,16.57
2023-05-21T08:10:48.386Z,16.56
2023-05-21T08:13:16.594Z,16.61
2023-05-21T08:15:43.038Z,16.61
2023-05-21T08:18:10.011Z,16.64
2023-05-21T08:20:36.590Z,16.60
2023-05-21T08:23:03.136Z,16.69
2023-05-21T08:25:30.083Z,16.73
2023-05-21T08:27:56.497Z,16.78
2023-05-21T08:30:22.967Z,16.87
2023-05-21T08:32:49.973Z,16.95
2023-05-21T08:35:16.516Z,17.03
2023-05-21T08:37:43.069Z,17.11
2023-05-21T08:40:11.320Z,17.15
2023-05-21T08:42:48.249Z,17.15
2023-05-21T08:45:16.834Z,17.29
2023-05-21T08:47:44.399Z,17.23
2023-05-21T08:50:16.504Z,17.32
2023-05-21T08:52:42.923Z,17.41
2023-05-21T08:55:10.302Z,17.36
2023-05-21T08:57:37.072Z,17.35
2023-05-21T09:00:07.144Z,17.43
2023-05-21T09:02:35.241Z,17.53
2023-05-21T09:05:03.308Z,17.55
2023-05-21T09:07:31.684Z,17.47
2023-05-21T09:10:03.865Z,17.52
2023-05-21T09:12:30.520Z,17.59
2023-05-21T09:14:58.416Z,17.53
2023-05-21T09:17:24.944Z,17.58
2023-05-21T09:20:09.601Z,17.76
2023-05-21T09:22:46.898Z,17.84
2023-05-21T09:25:15.791Z,17.98
2023-05-21T09:27:42.509Z,17.82
2023-05-21T09:30:13.851Z,18.00
2023-05-21T09:32:41.649Z,18.06
2023-05-21T09:35:12.008Z,18.06
2023-05-21T09:37:48.808Z,18.08
2023-05-21T09:40:15.516Z,18.08
2023-05-21T09:42:46.156Z,18.05
2023-05-21T09:45:13.215Z,17.99
2023-05-21T09:47:45.861Z,18.05
2023-05-21T09:50:13.794Z,18.02
2023-05-21T09:52:42.144Z,18.15
2023-05-21T09:55:13.306Z,18.09
2023-05-21T09:57:51.039Z,18.07
2023-05-21T10:00:18.652Z,18.14
2023-05-21T10:02:49.331Z,18.14
2023-05-21T10:05:17.039Z,18.08
2023-05-21T10:07:48.990Z,18.17
2023-05-21T10:10:16.398Z,18.21
2023-05-21T10:12:57.687Z,18.14
2023-05-21T10:15:25.524Z,18.18
2023-05-21T10:17:52.692Z,18.22
2023-05-21T10:20:20.806Z,18.21
2023-05-21T10:22:47.824Z,18.31
2023-05-21T10:25:14.704Z,18.31
2023-05-21T10:27:41.569Z,18.33
2023-05-21T10:30:08.652Z,18.32
2023-05-21T10:32:35.382Z,18.41
2023-05-21T10:35:04.816Z,18.56
2023-05-21T10:37:31.208Z,18.52
2023-05-21T10:39:57.677Z,18.55
2023-05-21T10:42:24.065Z,18.66
2023-05-21T10:45:02.479Z,18.63
2023-05-21T10:47:53.559Z,18.60
2023-05-21T10:50:39.281Z,18.60
2023-05-21T10:53:40.461Z,18.65
2023-05-21T10:56:37.382Z,18.88
2023-05-21T10:59:39.644Z,18.90
2023-05-21T11:02:07.431Z,18.89
2023-05-21T11:04:39.682Z,18.98
2023-05-21T11:07:06.352Z,18.92
2023-05-21T11:09:32.764Z,18.97
2023-05-21T11:12:00.819Z,19.13
2023-05-21T11:14:40.393Z,19.19
2023-05-21T11:17:11.194Z,19.32
2023-05-21T11:19:40.322Z,19.27
2023-05-21T11:22:10.549Z,19.45
2023-05-21T11:24:39.580Z,19.49
2023-05-21T11:27:06.952Z,19.52
2023-05-21T11:29:42.488Z,19.45
2023-05-21T11:32:10.100Z,19.53
2023-05-21T11:34:39.473Z,19.62
2023-05-21T11:37:18.109Z,19.82
2023-05-21T11:39:45.324Z,19.92
2023-05-21T11:42:11.823Z,19.96
2023-05-21T11:44:45.200Z,20.13
2023-05-21T11:47:15.077Z,20.08
2023-05-21T11:49:42.471Z,20.12
2023-05-21T11:52:09.785Z,20.15
2023-05-21T11:54:46.157Z,20.22
2023-05-21T11:57:17.201Z,20.25
2023-05-21T11:59:44.775Z,20.26
2023-05-21T12:02:18.647Z,20.17
2023-05-21T12:04:46.638Z,20.18
2023-05-21T12:07:14.987Z,20.20
2023-05-21T12:09:46.753Z,20.19
2023-05-21T12:12:16.483Z,20.23
2023-05-21T12:14:47.792Z,20.32
2023-05-21T12:17:18.452Z,20.33
2023-05-21T12:19:46.026Z,20.27
2023-05-21T12:22:13.154Z,20.35
2023-05-21T12:24:39.589Z,20.47
2023-05-21T12:27:10.253Z,20.52
2023-05-21T12:29:38.340Z,20.63
2023-05-21T12:32:08.683Z,20.77
2023-05-21T12:34:48.571Z,20.79
2023-05-21T12:37:41.223Z,20.84
2023-05-21T12:40:08.337Z,20.94
2023-05-21T12:42:35.075Z,20.94
2023-05-21T12:45:06.732Z,20.95
2023-05-21T12:47:33.867Z,21.08
2023-05-21T12:50:01.830Z,21.34
2023-05-21T12:52:29.074Z,21.55
2023-05-21T12:54:57.070Z,21.60
2023-05-21T12:57:34.747Z,21.61
2023-05-21T13:00:02.353Z,21.72
2023-05-21T13:02:35.252Z,21.85
2023-05-21T13:05:03.978Z,21.93
2023-05-21T13:07:32.438Z,21.99
2023-05-21T13:09:59.814Z,22.03
2023-05-21T13:12:29.172Z,22.13
2023-05-21T13:14:57.717Z,22.16
2023-05-21T13:17:25.511Z,22.28
2023-05-21T13:20:08.171Z,22.33
2023-05-21T13:22:38.880Z,22.35
2023-05-21T13:25:06.370Z,22.42
2023-05-21T13:27:32.776Z,22.43
2023-05-21T13:29:59.299Z,22.40
2023-05-21T13:32:25.887Z,22.45
2023-05-21T13:34:52.297Z,22.57
2023-05-21T13:37:20.138Z,22.66
2023-05-21T13:39:47.534Z,22.52
2023-05-21T13:42:14.100Z,22.56
2023-05-21T13:44:40.635Z,22.67
2023-05-21T13:47:07.626Z,22.42
2023-05-21T13:49:34.142Z,22.28
2023-05-21T13:52:00.899Z,22.22
2023-05-21T13:54:28.299Z,22.06
2023-05-21T13:56:55.128Z,22.06
2023-05-21T13:59:21.684Z,22.10
2023-05-21T14:01:49.869Z,22.31
2023-05-21T14:04:17.529Z,22.40
2023-05-21T14:06:44.147Z,22.59
2023-05-21T14:09:11.076Z,22.53
2023-05-21T14:11:38.277Z,22.41
2023-05-21T14:14:04.892Z,22.51
2023-05-21T14:16:31.425Z,22.60
2023-05-21T14:18:58.040Z,22.80
2023-05-21T14:21:25.362Z,22.76
2023-05-21T14:23:52.467Z,22.62
2023-05-21T14:26:19.001Z,22.68
2023-05-21T14:28:46.244Z,22.73
2023-05-21T14:31:12.671Z,22.67
2023-05-21T14:33:39.130Z,22.59
2023-05-21T14:36:06.122Z,22.68
2023-05-21T14:38:32.666Z,22.70
2023-05-21T14:40:59.085Z,22.57
2023-05-21T14:43:25.505Z,22.61
2023-05-21T14:45:52.103Z,22.67
2023-05-21T14:48:22.612Z,22.78
2023-05-21T14:50:50.138Z,22.72
2023-05-21T14:53:17.299Z,22.76
2023-05-21T14:55:43.763Z,22.81
2023-05-21T14:58:10.236Z,22.72
2023-05-21T15:00:37.552Z,22.62
2023-05-21T15:03:05.049Z,22.57
2023-05-21T15:05:31.657Z,22.58
2023-05-21T15:07:58.343Z,22.61
2023-05-21T15:10:26.299Z,22.80
2023-05-21T15:12:53.391Z,22.76
2023-05-21T15:15:22.932Z,22.65
2023-05-21T15:17:50.466Z,22.58
2023-05-21T15:20:17.709Z,22.58
2023-05-21T15:22:46.699Z,22.54
2023-05-21T15:25:13.100Z,22.50
2023-05-21T15:27:39.508Z,22.53
2023-05-21T15:30:06.935Z,22.78
2023-05-21T15:32:33.371Z,22.86
2023-05-21T15:35:00.098Z,22.94
2023-05-21T15:37:26.712Z,22.97
2023-05-21T15:39:53.907Z,22.79
2023-05-21T15:42:20.344Z,22.88
2023-05-21T15:44:47.163Z,22.74
2023-05-21T15:47:13.574Z,22.87
2023-05-21T15:49:39.956Z,22.92
2023-05-21T15:52:06.769Z,22.85
2023-05-21T15:54:34.198Z,22.74
2023-05-21T15:57:00.613Z,22.73
2023-05-21T15:59:27.535Z,22.77
2023-05-21T16:01:55.608Z,22.65
2023-05-21T16:04:22.118Z,22.63
2023-05-21T16:06:48.562Z,22.74
2023-05-21T16:09:15.131Z,22.75
2023-05-21T16:11:43.835Z,22.78
2023-05-21T16:14:11.429Z,22.84
2023-05-21T16:16:38.594Z,22.90
2023-05-21T16:19:05.150Z,22.89
2023-05-21T16:21:31.906Z,22.90
2023-05-21T16:23:58.425Z,22.90
2023-05-21T16:26:24.902Z,22.88
2023-05-21T16:28:51.504Z,22.77
2023-05-21T16:31:17.898Z,22.78
2023-05-21T16:33:44.310Z,22.69
2023-05-21T16:36:10.712Z,22.74
2023-05-21T16:38:37.251Z,22.70
2023-05-21T16:41:03.759Z,22.74
2023-05-21T16:43:30.195Z,22.74
2023-05-21T16:45:56.592Z,22.68
2023-05-21T16:48:22.999Z,22.60
2023-05-21T16:50:49.448Z,22.64
2023-05-21T16:53:16.270Z,22.66
2023-05-21T16:55:43.240Z,22.66
2023-05-21T16:58:10.832Z,22.70
2023-05-21T17:00:37.514Z,22.74
2023-05-21T17:03:04.247Z,22.67
2023-05-21T17:05:30.752Z,22.64
2023-05-21T17:07:57.264Z,22.65
2023-05-21T17:10:24.953Z,22.73
2023-05-21T17:12:51.469Z,22.63
2023-05-21T17:15:17.897Z,22.66
2023-05-21T17:17:44.385Z,22.58
2023-05-21T17:20:11.529Z,22.64
2023-05-21T17:22:37.986Z,22.58
2023-05-21T17:25:04.786Z,22.56
2023-05-21T17:27:31.221Z,22.55
2023-05-21T17:29:57.656Z,22.62
2023-05-21T17:32:24.067Z,22.54
2023-05-21T17:34:50.551Z,22.53
2023-05-21T17:37:17.013Z,22.56
2023-05-21T17:39:43.731Z,22.57
2023-05-21T17:42:10.200Z,22.52
2023-05-21T17:44:36.655Z,22.47
2023-05-21T17:47:03.215Z,22.53
2023-05-21T17:49:29.645Z,22.55
2023-05-21T17:51:56.169Z,22.56
2023-05-21T17:54:22.586Z,22.48
2023-05-21T17:56:49.012Z,22.46
2023-05-21T17:59:16.022Z,22.37
2023-05-21T18:01:42.499Z,22.42
2023-05-21T18:04:10.764Z,22.41
2023-05-21T18:06:37.499Z,22.29
2023-05-21T18:09:04.063Z,22.20
2023-05-21T18:11:30.525Z,21.98
2023-05-21T18:13:56.945Z,21.82
2023-05-21T18:16:23.599Z,21.62
2023-05-21T18:18:50.083Z,21.48
2023-05-21T18:21:16.601Z,21.24
2023-05-21T18:23:43.052Z,21.08
2023-05-21T18:26:09.450Z,20.83
2023-05-21T18:28:35.848Z,20.67
2023-05-21T18:31:04.167Z,20.53
2023-05-21T18:33:31.200Z,20.40
2023-05-21T18:35:57.822Z,20.30
2023-05-21T18:38:24.573Z,20.11
2023-05-21T18:40:51.195Z,19.93
2023-05-21T18:43:17.996Z,19.82
2023-05-21T18:45:45.145Z,19.73
2023-05-21T18:48:14.285Z,19.56
2023-05-21T18:50:40.729Z,19.41
2023-05-21T18:53:07.231Z,19.32
2023-05-21T18:55:34.346Z,19.12
2023-05-21T18:58:01.160Z,19.08
2023-05-21T19:00:27.624Z,18.82
2023-05-21T19:02:55.493Z,18.76
2023-05-21T19:05:22.227Z,18.69
2023-05-21T19:07:48.654Z,18.54
2023-05-21T19:10:15.207Z,18.37
2023-05-21T19:12:43.374Z,18.35
2023-05-21T19:15:10.490Z,18.25
2023-05-21T19:17:38.908Z,18.16
2023-05-21T19:20:09.073Z,18.04
2023-05-21T19:22:37.054Z,18.01
2023-05-21T19:25:03.938Z,17.88
2023-05-21T19:27:30.347Z,17.92
2023-05-21T19:29:56.793Z,17.80
2023-05-21T19:32:23.720Z,17.80
2023-05-21T19:34:51.534Z,17.70
2023-05-21T19:37:18.034Z,17.61
2023-05-21T19:39:49.413Z,17.52
2023-05-21T19:42:17.570Z,17.51
2023-05-21T19:44:44.063Z,17.42
2023-05-21T19:47:10.634Z,17.31
2023-05-21T19:49:37.094Z,17.27
2023-05-21T19:52:04.734Z,17.15
2023-05-21T19:54:31.176Z,17.06
2023-05-21T19:56:57.800Z,17.15
2023-05-21T19:59:24.347Z,17.06
2023-05-21T20:01:51.564Z,16.96
2023-05-21T20:04:18.302Z,16.91
2023-05-21T20:06:44.807Z,16.85
2023-05-21T20:09:13.192Z,16.77
2023-05-21T20:11:42.053Z,16.83
2023-05-21T20:14:08.807Z,16.70
2023-05-21T20:16:35.315Z,16.70
2023-05-21T20:19:02.212Z,16.59
2023-05-21T20:21:30.406Z,16.56
2023-05-21T20:23:56.915Z,16.57
2023-05-21T20:26:23.328Z,16.49
2023-05-21T20:28:49.718Z,16.41
2023-05-21T20:31:16.236Z,16.37
2023-05-21T20:33:42.983Z,16.42
2023-05-21T20:36:09.460Z,16.33
2023-05-21T20:38:38.004Z,16.33
2023-05-21T20:41:04.889Z,16.36
2023-05-21T20:43:31.307Z,16.37
2023-05-21T20:45:59.603Z,16.29
2023-05-21T20:48:31.789Z,16.24
2023-05-21T20:50:59.799Z,16.29
2023-05-21T20:53:26.746Z,16.22
2023-05-21T20:55:54.591Z,16.21
2023-05-21T20:58:23.802Z,16.25
2023-05-21T21:00:50.393Z,16.16
2023-05-21T21:03:17.900Z,16.16
2023-05-21T21:05:44.476Z,16.15
2023-05-21T21:08:10.914Z,16.06
2023-05-21T21:10:38.555Z,16.01
2023-05-21T21:13:06.901Z,16.09
2023-05-21T21:15:34.024Z,15.98
2023-05-21T21:18:00.534Z,16.01
2023-05-21T21:20:26.972Z,15.96
2023-05-21T21:22:53.619Z,15.97
2023-05-21T21:25:20.027Z,15.93
2023-05-21T21:27:46.477Z,15.87
2023-05-21T21:30:13.109Z,15.86
2023-05-21T21:32:40.241Z,15.83
2023-05-21T21:35:06.839Z,15.78
2023-05-21T21:37:33.277Z,15.77
2023-05-21T21:39:59.657Z,15.73
2023-05-21T21:42:26.057Z,15.82
2023-05-21T21:44:52.467Z,15.67
2023-05-21T21:47:18.868Z,15.63
2023-05-21T21:49:45.303Z,15.64
2023-05-21T21:52:12.469Z,15.68
2023-05-21T21:54:38.952Z,15.63
2023-05-21T21:57:05.739Z,15.59
2023-05-21T21:59:32.145Z,15.48
2023-05-21T22:01:58.755Z,15.51
2023-05-21T22:04:25.273Z,15.50
2023-05-21T22:06:53.597Z,15.44
2023-05-21T22:09:22.403Z,15.42
2023-05-21T22:11:48.922Z,15.43
2023-05-21T22:14:15.863Z,15.39
2023-05-21T22:16:43.193Z,15.36
2023-05-21T22:19:10.173Z,15.29
2023-05-21T22:21:36.748Z,15.25
2023-05-21T22:24:03.976Z,15.21
2023-05-21T22:26:30.389Z,15.08
2023-05-21T22:28:59.000Z,15.13
2023-05-21T22:31:26.731Z,15.14
2023-05-21T22:33:53.237Z,15.14
2023-05-21T22:36:19.651Z,15.02
2023-05-21T22:38:46.193Z,15.05
2023-05-21T22:41:12.715Z,14.99
2023-05-21T22:43:39.221Z,14.95
2023-05-21T22:46:05.783Z,14.94
2023-05-21T22:48:34.011Z,14.94
2023-05-21T22:51:01.720Z,14.92
2023-05-21T22:53:28.243Z,14.81
2023-05-21T22:55:54.632Z,14.76
2023-05-21T22:58:21.062Z,14.72
2023-05-21T23:00:48.018Z,14.72
2023-05-21T23:03:14.837Z,14.79
2023-05-21T23:05:41.348Z,14.78
2023-05-21T23:08:07.858Z,14.71
2023-05-21T23:10:35.388Z,14.71
2023-05-21T23:13:01.799Z,14.71
2023-05-21T23:15:29.750Z,14.68
2023-05-21T23:17:56.995Z,14.67
2023-05-21T23:20:24.629Z,14.53
2023-05-21T23:22:51.062Z,14.60
2023-05-21T23:25:17.791Z,14.59
2023-05-21T23:27:44.235Z,14.58
2023-05-21T23:30:11.934Z,14.56
2023-05-21T23:32:38.670Z,14.50
2023-05-21T23:35:05.711Z,14.41
2023-05-21T23:37:32.100Z,14.37
2023-05-21T23:39:58.545Z,14.36
2023-05-21T23:42:24.983Z,14.40
2023-05-21T23:44:51.368Z,14.41
2023-05-21T23:47:17.797Z,14.40
2023-05-21T23:49:44.206Z,14.33
2023-05-21T23:52:12.992Z,14.41
2023-05-21T23:54:39.415Z,14.49
2023-05-21T23:57:06.306Z,14.36
2023-05-21T23:59:32.771Z,14.32
